sensor_id;sensor_type;location;lat;lon;timestamp;pressure;altitude;pressure_sealevel;temperature;humidity
78892;BME280;68368;51.728;5.248;2023-10-09T00:01:05;102057.38;;;13.25;100.00
78892;BME280;68368;51.728;5.248;2023-10-09T00:03:10;102057.20;;;13.28;100.00
78892;BME280;68368;51.728;5.248;2023-10-09T00:05:15;102052.73;;;13.31;100.00
78892;BME280;68368;51.728;5.248;2023-10-09T00:07:19;102043.27;;;13.33;100.00
78892;BME280;68368;51.728;5.248;2023-10-09T00:09:27;102040.25;;;13.35;100.00
78892;BME280;68368;51.728;5.248;2023-10-09T00:11:32;102033.09;;;13.38;100.00
78892;BME280;68368;51.728;5.248;2023-10-09T00:13:37;102028.28;;;13.41;100.00
78892;BME280;68368;51.728;5.248;2023-10-09T00:15:42;102023.63;;;13.44;100.00
78892;BME280;68368;51.728;5.248;2023-10-09T00:17:47;102022.55;;;13.48;100.00
78892;BME280;68368;51.728;5.248;2023-10-09T00:19:51;102023.27;;;13.50;100.00
78892;BME280;68368;51.728;5.248;2023-10-09T00:21:57;102025.91;;;13.53;100.00
78892;BME280;68368;51.728;5.248;2023-10-09T00:24:01;102025.55;;;13.57;100.00
78892;BME280;68368;51.728;5.248;2023-10-09T00:26:06;102021.44;;;13.60;100.00
78892;BME280;68368;51.728;5.248;2023-10-09T00:28:11;102022.84;;;13.64;100.00
78892;BME280;68368;51.728;5.248;2023-10-09T00:30:17;102023.00;;;13.68;100.00
78892;BME280;68368;51.728;5.248;2023-10-09T00:32:22;102024.06;;;13.72;100.00
78892;BME280;68368;51.728;5.248;2023-10-09T00:34:27;102029.77;;;13.76;100.00
78892;BME280;68368;51.728;5.248;2023-10-09T00:36:32;102029.21;;;13.79;100.00
78892;BME280;68368;51.728;5.248;2023-10-09T00:38:37;102029.02;;;13.82;100.00
78892;BME280;68368;51.728;5.248;2023-10-09T00:40:41;102022.95;;;13.85;100.00
78892;BME280;68368;51.728;5.248;2023-10-09T00:42:46;102023.11;;;13.88;100.00
78892;BME280;68368;51.728;5.248;2023-10-09T00:44:51;102023.98;;;13.90;100.00
78892;BME280;68368;51.728;5.248;2023-10-09T00:46:56;102026.83;;;13.92;100.00
78892;BME280;68368;51.728;5.248;2023-10-09T00:49:01;102025.21;;;13.95;100.00
78892;BME280;68368;51.728;5.248;2023-10-09T00:51:07;102028.06;;;13.97;100.00
78892;BME280;68368;51.728;5.248;2023-10-09T00:53:12;102023.76;;;14.00;100.00
78892;BME280;68368;51.728;5.248;2023-10-09T00:55:20;102023.20;;;14.05;100.00
78892;BME280;68368;51.728;5.248;2023-10-09T00:57:25;102028.72;;;14.08;100.00
78892;BME280;68368;51.728;5.248;2023-10-09T00:59:30;102031.19;;;14.12;100.00
78892;BME280;68368;51.728;5.248;2023-10-09T01:01:39;102030.64;;;14.15;100.00
78892;BME280;68368;51.728;5.248;2023-10-09T01:03:44;102023.30;;;14.17;100.00
78892;BME280;68368;51.728;5.248;2023-10-09T01:05:51;102018.29;;;14.20;100.00
78892;BME280;68368;51.728;5.248;2023-10-09T01:07:58;102015.05;;;14.23;100.00
78892;BME280;68368;51.728;5.248;2023-10-09T01:10:03;102014.13;;;14.27;100.00
78892;BME280;68368;51.728;5.248;2023-10-09T01:12:08;102015.54;;;14.30;100.00
78892;BME280;68368;51.728;5.248;2023-10-09T01:14:13;102014.98;;;14.34;100.00
78892;BME280;68368;51.728;5.248;2023-10-09T01:16:19;102013.34;;;14.36;100.00
78892;BME280;68368;51.728;5.248;2023-10-09T01:18:25;102019.23;;;14.39;100.00
78892;BME280;68368;51.728;5.248;2023-10-09T01:20:30;102014.21;;;14.42;100.00
78892;BME280;68368;51.728;5.248;2023-10-09T01:22:35;102016.52;;;14.44;100.00
78892;BME280;68368;51.728;5.248;2023-10-09T01:24:40;102014.17;;;14.46;100.00
78892;BME280;68368;51.728;5.248;2023-10-09T01:26:46;102014.54;;;14.47;100.00
78892;BME280;68368;51.728;5.248;2023-10-09T01:28:51;102015.05;;;14.49;100.00
78892;BME280;68368;51.728;5.248;2023-10-09T01:30:55;102013.45;;;14.49;100.00
78892;BME280;68368;51.728;5.248;2023-10-09T01:33:03;102010.40;;;14.51;100.00
78892;BME280;68368;51.728;5.248;2023-10-09T01:35:08;102001.84;;;14.53;100.00
78892;BME280;68368;51.728;5.248;2023-10-09T01:37:15;102003.08;;;14.54;100.00
78892;BME280;68368;51.728;5.248;2023-10-09T01:39:20;102004.66;;;14.56;100.00
78892;BME280;68368;51.728;5.248;2023-10-09T01:41:25;102006.62;;;14.57;100.00
78892;BME280;68368;51.728;5.248;2023-10-09T01:43:30;102003.23;;;14.58;100.00
78892;BME280;68368;51.728;5.248;2023-10-09T01:45:35;102006.08;;;14.59;100.00
78892;BME280;68368;51.728;5.248;2023-10-09T01:47:39;101997.84;;;14.60;100.00
78892;BME280;68368;51.728;5.248;2023-10-09T01:49:44;101994.98;;;14.60;100.00
78892;BME280;68368;51.728;5.248;2023-10-09T01:51:49;101998.21;;;14.60;100.00
78892;BME280;68368;51.728;5.248;2023-10-09T01:53:54;101995.89;;;14.60;100.00
78892;BME280;68368;51.728;5.248;2023-10-09T01:56:01;102002.31;;;14.60;100.00
78892;BME280;68368;51.728;5.248;2023-10-09T01:58:12;101997.85;;;14.60;100.00
78892;BME280;68368;51.728;5.248;2023-10-09T02:00:18;101996.06;;;14.61;100.00
78892;BME280;68368;51.728;5.248;2023-10-09T02:02:23;101996.58;;;14.62;100.00
78892;BME280;68368;51.728;5.248;2023-10-09T02:04:28;101989.27;;;14.61;100.00
78892;BME280;68368;51.728;5.248;2023-10-09T02:06:32;101986.06;;;14.60;100.00
78892;BME280;68368;51.728;5.248;2023-10-09T02:08:37;101991.95;;;14.60;100.00
78892;BME280;68368;51.728;5.248;2023-10-09T02:10:42;101992.67;;;14.60;100.00
78892;BME280;68368;51.728;5.248;2023-10-09T02:12:46;101990.70;;;14.59;100.00
78892;BME280;68368;51.728;5.248;2023-10-09T02:14:52;101990.02;;;14.58;100.00
78892;BME280;68368;51.728;5.248;2023-10-09T02:16:56;101984.99;;;14.57;100.00
78892;BME280;68368;51.728;5.248;2023-10-09T02:19:01;101986.60;;;14.58;100.00
78892;BME280;68368;51.728;5.248;2023-10-09T02:21:10;101986.77;;;14.58;100.00
78892;BME280;68368;51.728;5.248;2023-10-09T02:23:15;101982.66;;;14.59;100.00
78892;BME280;68368;51.728;5.248;2023-10-09T02:25:19;101965.14;;;14.60;100.00
78892;BME280;68368;51.728;5.248;2023-10-09T02:27:25;101962.11;;;14.60;100.00
78892;BME280;68368;51.728;5.248;2023-10-09T02:29:30;101954.79;;;14.58;100.00
78892;BME280;68368;51.728;5.248;2023-10-09T02:31:34;101948.54;;;14.58;100.00
78892;BME280;68368;51.728;5.248;2023-10-09T02:33:39;101948.55;;;14.58;100.00
78892;BME280;68368;51.728;5.248;2023-10-09T02:35:44;101962.30;;;14.58;100.00
78892;BME280;68368;51.728;5.248;2023-10-09T02:37:49;101963.18;;;14.58;100.00
78892;BME280;68368;51.728;5.248;2023-10-09T02:39:54;101964.95;;;14.60;100.00
78892;BME280;68368;51.728;5.248;2023-10-09T02:41:59;101964.61;;;14.61;100.00
78892;BME280;68368;51.728;5.248;2023-10-09T02:44:04;101965.14;;;14.60;100.00
78892;BME280;68368;51.728;5.248;2023-10-09T02:46:09;101962.10;;;14.59;100.00
78892;BME280;68368;51.728;5.248;2023-10-09T02:48:14;101960.86;;;14.59;100.00
78892;BME280;68368;51.728;5.248;2023-10-09T02:50:19;101957.65;;;14.58;100.00
78892;BME280;68368;51.728;5.248;2023-10-09T02:52:24;101957.83;;;14.58;100.00
78892;BME280;68368;51.728;5.248;2023-10-09T02:54:29;101958.91;;;14.58;100.00
78892;BME280;68368;51.728;5.248;2023-10-09T02:56:34;101962.13;;;14.58;100.00
78892;BME280;68368;51.728;5.248;2023-10-09T02:58:39;101953.36;;;14.58;100.00
78892;BME280;68368;51.728;5.248;2023-10-09T03:00:44;101954.43;;;14.57;100.00
78892;BME280;68368;51.728;5.248;2023-10-09T03:02:49;101944.98;;;14.56;100.00
78892;BME280;68368;51.728;5.248;2023-10-09T03:04:53;101940.17;;;14.56;100.00
78892;BME280;68368;51.728;5.248;2023-10-09T03:06:58;101939.82;;;14.55;100.00
78892;BME280;68368;51.728;5.248;2023-10-09T03:09:03;101935.70;;;14.54;100.00
78892;BME280;68368;51.728;5.248;2023-10-09T03:11:08;101931.77;;;14.55;100.00
78892;BME280;68368;51.728;5.248;2023-10-09T03:13:13;101930.35;;;14.55;100.00
78892;BME280;68368;51.728;5.248;2023-10-09T03:15:18;101931.77;;;14.54;100.00
78892;BME280;68368;51.728;5.248;2023-10-09T03:17:23;101940.00;;;14.53;100.00
78892;BME280;68368;51.728;5.248;2023-10-09T03:19:29;101930.34;;;14.50;100.00
78892;BME280;68368;51.728;5.248;2023-10-09T03:21:34;101931.79;;;14.49;100.00
78892;BME280;68368;51.728;5.248;2023-10-09T03:23:39;101932.86;;;14.48;100.00
78892;BME280;68368;51.728;5.248;2023-10-09T03:25:44;101920.90;;;14.47;100.00
78892;BME280;68368;51.728;5.248;2023-10-09T03:27:49;101913.59;;;14.47;100.00
78892;BME280;68368;51.728;5.248;2023-10-09T03:29:54;101907.67;;;14.47;100.00
78892;BME280;68368;51.728;5.248;2023-10-09T03:31:59;101910.36;;;14.47;100.00
78892;BME280;68368;51.728;5.248;2023-10-09T03:34:05;101913.40;;;14.47;100.00
78892;BME280;68368;51.728;5.248;2023-10-09T03:36:10;101917.16;;;14.47;100.00
78892;BME280;68368;51.728;5.248;2023-10-09T03:38:14;101919.84;;;14.47;100.00
78892;BME280;68368;51.728;5.248;2023-10-09T03:40:19;101925.73;;;14.47;100.00
78892;BME280;68368;51.728;5.248;2023-10-09T03:42:24;101930.89;;;14.50;100.00
78892;BME280;68368;51.728;5.248;2023-10-09T03:44:29;101922.69;;;14.53;100.00
78892;BME280;68368;51.728;5.248;2023-10-09T03:46:33;101929.63;;;14.54;100.00
78892;BME280;68368;51.728;5.248;2023-10-09T03:48:38;101931.23;;;14.56;100.00
78892;BME280;68368;51.728;5.248;2023-10-09T03:50:43;101933.00;;;14.56;100.00
78892;BME280;68368;51.728;5.248;2023-10-09T03:52:47;101925.48;;;14.57;100.00
78892;BME280;68368;51.728;5.248;2023-10-09T03:54:52;101918.34;;;14.57;100.00
78892;BME280;68368;51.728;5.248;2023-10-09T03:56:57;101914.05;;;14.57;100.00
78892;BME280;68368;51.728;5.248;2023-10-09T03:59:02;101906.36;;;14.58;100.00
78892;BME280;68368;51.728;5.248;2023-10-09T04:01:12;101909.59;;;14.58;100.00
78892;BME280;68368;51.728;5.248;2023-10-09T04:03:17;101904.02;;;14.60;100.00
78892;BME280;68368;51.728;5.248;2023-10-09T04:05:22;101909.93;;;14.60;100.00
78892;BME280;68368;51.728;5.248;2023-10-09T04:07:27;101904.39;;;14.60;100.00
78892;BME280;68368;51.728;5.248;2023-10-09T04:09:32;101910.09;;;14.62;100.00
78892;BME280;68368;51.728;5.248;2023-10-09T04:11:36;101909.33;;;14.65;100.00
78892;BME280;68368;51.728;5.248;2023-10-09T04:13:41;101910.58;;;14.67;100.00
78892;BME280;68368;51.728;5.248;2023-10-09T04:15:46;101915.20;;;14.69;100.00
78892;BME280;68368;51.728;5.248;2023-10-09T04:17:51;101929.66;;;14.70;100.00
78892;BME280;68368;51.728;5.248;2023-10-09T04:19:56;101936.97;;;14.73;100.00
78892;BME280;68368;51.728;5.248;2023-10-09T04:22:01;101948.02;;;14.75;100.00
78892;BME280;68368;51.728;5.248;2023-10-09T04:24:08;101944.60;;;14.78;100.00
78892;BME280;68368;51.728;5.248;2023-10-09T04:26:13;101942.08;;;14.81;100.00
78892;BME280;68368;51.728;5.248;2023-10-09T04:28:17;101945.61;;;14.84;100.00
78892;BME280;68368;51.728;5.248;2023-10-09T04:30:22;101946.29;;;14.86;100.00
78892;BME280;68368;51.728;5.248;2023-10-09T04:32:27;101940.92;;;14.88;100.00
78892;BME280;68368;51.728;5.248;2023-10-09T04:34:31;101939.11;;;14.91;100.00
78892;BME280;68368;51.728;5.248;2023-10-09T04:36:36;101937.84;;;14.92;100.00
78892;BME280;68368;51.728;5.248;2023-10-09T04:38:41;101941.21;;;14.94;100.00
78892;BME280;68368;51.728;5.248;2023-10-09T04:40:46;101944.95;;;14.96;100.00
78892;BME280;68368;51.728;5.248;2023-10-09T04:42:50;101941.52;;;14.98;100.00
78892;BME280;68368;51.728;5.248;2023-10-09T04:44:55;101942.98;;;14.98;100.00
78892;BME280;68368;51.728;5.248;2023-10-09T04:47:00;101939.94;;;14.98;100.00
78892;BME280;68368;51.728;5.248;2023-10-09T04:49:05;101937.59;;;15.00;100.00
78892;BME280;68368;51.728;5.248;2023-10-09T04:51:10;101934.70;;;15.00;100.00
78892;BME280;68368;51.728;5.248;2023-10-09T04:53:18;101937.75;;;15.00;100.00
78892;BME280;68368;51.728;5.248;2023-10-09T04:55:23;101933.63;;;15.00;100.00
78892;BME280;68368;51.728;5.248;2023-10-09T04:57:28;101926.66;;;15.00;100.00
78892;BME280;68368;51.728;5.248;2023-10-09T04:59:32;101927.02;;;15.01;100.00
78892;BME280;68368;51.728;5.248;2023-10-09T05:01:37;101924.16;;;15.00;100.00
78892;BME280;68368;51.728;5.248;2023-10-09T05:03:43;101928.98;;;15.01;100.00
78892;BME280;68368;51.728;5.248;2023-10-09T05:05:48;101927.92;;;15.00;100.00
78892;BME280;68368;51.728;5.248;2023-10-09T05:07:53;101933.63;;;15.01;100.00
78892;BME280;68368;51.728;5.248;2023-10-09T05:09:58;101938.85;;;14.99;100.00
78892;BME280;68368;51.728;5.248;2023-10-09T05:12:03;101925.27;;;14.99;100.00
78892;BME280;68368;51.728;5.248;2023-10-09T05:14:07;101935.80;;;14.99;100.00
78892;BME280;68368;51.728;5.248;2023-10-09T05:16:14;101943.85;;;14.99;100.00
78892;BME280;68368;51.728;5.248;2023-10-09T05:18:19;101950.83;;;14.99;100.00
78892;BME280;68368;51.728;5.248;2023-10-09T05:20:24;101958.52;;;15.00;100.00
78892;BME280;68368;51.728;5.248;2023-10-09T05:22:29;101950.27;;;15.01;100.00
78892;BME280;68368;51.728;5.248;2023-10-09T05:24:33;101944.35;;;15.02;100.00
78892;BME280;68368;51.728;5.248;2023-10-09T05:26:39;101944.33;;;15.03;100.00
78892;BME280;68368;51.728;5.248;2023-10-09T05:28:44;101950.95;;;15.03;100.00
78892;BME280;68368;51.728;5.248;2023-10-09T05:30:49;101947.92;;;15.02;100.00
78892;BME280;68368;51.728;5.248;2023-10-09T05:32:58;101947.54;;;15.04;100.00
78892;BME280;68368;51.728;5.248;2023-10-09T05:35:03;101941.13;;;15.04;100.00
78892;BME280;68368;51.728;5.248;2023-10-09T05:37:08;101937.54;;;15.04;100.00
78892;BME280;68368;51.728;5.248;2023-10-09T05:39:13;101940.75;;;15.05;100.00
78892;BME280;68368;51.728;5.248;2023-10-09T05:41:18;101945.39;;;15.06;100.00
78892;BME280;68368;51.728;5.248;2023-10-09T05:43:23;101951.10;;;15.06;100.00
78892;BME280;68368;51.728;5.248;2023-10-09T05:45:28;101967.02;;;15.07;100.00
78892;BME280;68368;51.728;5.248;2023-10-09T05:47:33;101974.33;;;15.08;100.00
78892;BME280;68368;51.728;5.248;2023-10-09T05:49:38;101982.55;;;15.09;100.00
78892;BME280;68368;51.728;5.248;2023-10-09T05:51:42;101987.91;;;15.10;100.00
78892;BME280;68368;51.728;5.248;2023-10-09T05:53:47;101983.79;;;15.10;100.00
78892;BME280;68368;51.728;5.248;2023-10-09T05:55:52;101987.35;;;15.11;100.00
78892;BME280;68368;51.728;5.248;2023-10-09T05:57:58;101985.91;;;15.12;100.00
78892;BME280;68368;51.728;5.248;2023-10-09T06:00:02;101978.58;;;15.12;100.00
78892;BME280;68368;51.728;5.248;2023-10-09T06:02:07;101976.25;;;15.13;100.00
78892;BME280;68368;51.728;5.248;2023-10-09T06:04:12;101975.88;;;15.14;100.00
78892;BME280;68368;51.728;5.248;2023-10-09T06:06:17;101984.64;;;15.14;100.00
78892;BME280;68368;51.728;5.248;2023-10-09T06:08:23;101984.98;;;15.14;100.00
78892;BME280;68368;51.728;5.248;2023-10-09T06:10:28;101978.02;;;15.15;100.00
78892;BME280;68368;51.728;5.248;2023-10-09T06:12:33;101968.17;;;15.15;100.00
78892;BME280;68368;51.728;5.248;2023-10-09T06:14:38;101977.82;;;15.16;100.00
78892;BME280;68368;51.728;5.248;2023-10-09T06:16:44;101985.67;;;15.19;100.00
78892;BME280;68368;51.728;5.248;2023-10-09T06:18:49;101988.14;;;15.21;100.00
78892;BME280;68368;51.728;5.248;2023-10-09T06:20:54;101980.43;;;15.23;100.00
78892;BME280;68368;51.728;5.248;2023-10-09T06:22:58;101984.36;;;15.24;100.00
78892;BME280;68368;51.728;5.248;2023-10-09T06:25:04;101990.98;;;15.25;100.00
78892;BME280;68368;51.728;5.248;2023-10-09T06:27:09;101975.02;;;15.26;100.00
78892;BME280;68368;51.728;5.248;2023-10-09T06:29:14;101959.64;;;15.27;100.00
78892;BME280;68368;51.728;5.248;2023-10-09T06:31:19;101966.25;;;15.28;100.00
78892;BME280;68368;51.728;5.248;2023-10-09T06:33:24;101963.35;;;15.29;100.00
78892;BME280;68368;51.728;5.248;2023-10-09T06:35:28;101962.45;;;15.31;100.00
78892;BME280;68368;51.728;5.248;2023-10-09T06:37:34;101964.58;;;15.33;100.00
78892;BME280;68368;51.728;5.248;2023-10-09T06:39:39;101959.71;;;15.35;100.00
78892;BME280;68368;51.728;5.248;2023-10-09T06:41:44;101949.85;;;15.37;100.00
78892;BME280;68368;51.728;5.248;2023-10-09T06:43:49;101947.69;;;15.39;100.00
78892;BME280;68368;51.728;5.248;2023-10-09T06:45:55;101955.33;;;15.43;100.00
78892;BME280;68368;51.728;5.248;2023-10-09T06:48:00;101958.16;;;15.46;100.00
78892;BME280;68368;51.728;5.248;2023-10-09T06:50:06;101955.59;;;15.51;100.00
78892;BME280;68368;51.728;5.248;2023-10-09T06:52:11;101949.61;;;15.57;100.00
78892;BME280;68368;51.728;5.248;2023-10-09T06:54:15;101946.49;;;15.61;100.00
78892;BME280;68368;51.728;5.248;2023-10-09T06:56:20;101934.27;;;15.66;100.00
78892;BME280;68368;51.728;5.248;2023-10-09T06:58:26;101913.67;;;15.69;100.00
78892;BME280;68368;51.728;5.248;2023-10-09T07:00:34;101893.41;;;15.72;100.00
78892;BME280;68368;51.728;5.248;2023-10-09T07:02:42;101907.14;;;15.75;100.00
78892;BME280;68368;51.728;5.248;2023-10-09T07:04:47;101911.75;;;15.78;100.00
78892;BME280;68368;51.728;5.248;2023-10-09T07:06:52;101919.57;;;15.82;100.00
78892;BME280;68368;51.728;5.248;2023-10-09T07:08:57;101934.54;;;15.88;100.00
78892;BME280;68368;51.728;5.248;2023-10-09T07:11:03;101953.80;;;15.94;100.00
78892;BME280;68368;51.728;5.248;2023-10-09T07:13:08;101980.94;;;15.98;100.00
78892;BME280;68368;51.728;5.248;2023-10-09T07:15:13;101985.54;;;16.03;99.91
78892;BME280;68368;51.728;5.248;2023-10-09T07:17:18;101985.66;;;16.06;99.79
78892;BME280;68368;51.728;5.248;2023-10-09T07:19:23;101993.66;;;16.11;99.67
78892;BME280;68368;51.728;5.248;2023-10-09T07:21:28;102001.51;;;16.13;99.45
78892;BME280;68368;51.728;5.248;2023-10-09T07:23:33;102000.38;;;16.17;99.31
78892;BME280;68368;51.728;5.248;2023-10-09T07:25:37;102010.75;;;16.18;99.28
78892;BME280;68368;51.728;5.248;2023-10-09T07:27:42;102007.69;;;16.19;99.15
78892;BME280;68368;51.728;5.248;2023-10-09T07:29:47;102004.09;;;16.20;99.14
78892;BME280;68368;51.728;5.248;2023-10-09T07:31:53;102001.95;;;16.20;99.14
78892;BME280;68368;51.728;5.248;2023-10-09T07:33:58;102001.95;;;16.21;99.08
78892;BME280;68368;51.728;5.248;2023-10-09T07:36:03;102009.44;;;16.22;98.91
78892;BME280;68368;51.728;5.248;2023-10-09T07:38:08;102012.26;;;16.25;98.85
78892;BME280;68368;51.728;5.248;2023-10-09T07:40:14;102003.05;;;16.29;98.79
78892;BME280;68368;51.728;5.248;2023-10-09T07:42:19;101996.34;;;16.34;98.58
78892;BME280;68368;51.728;5.248;2023-10-09T07:44:26;101994.13;;;16.40;98.55
78892;BME280;68368;51.728;5.248;2023-10-09T07:46:31;101980.98;;;16.44;98.43
78892;BME280;68368;51.728;5.248;2023-10-09T07:48:36;101953.48;;;16.48;98.22
78892;BME280;68368;51.728;5.248;2023-10-09T07:50:41;101948.05;;;16.51;98.16
78892;BME280;68368;51.728;5.248;2023-10-09T07:52:46;101964.64;;;16.56;97.89
78892;BME280;68368;51.728;5.248;2023-10-09T07:54:52;101988.02;;;16.61;97.69
78892;BME280;68368;51.728;5.248;2023-10-09T07:56:57;101980.24;;;16.66;97.58
78892;BME280;68368;51.728;5.248;2023-10-09T07:59:02;101975.66;;;16.72;97.38
78892;BME280;68368;51.728;5.248;2023-10-09T08:01:07;101990.98;;;16.79;97.33
78892;BME280;68368;51.728;5.248;2023-10-09T08:03:12;101987.08;;;16.87;97.11
78892;BME280;68368;51.728;5.248;2023-10-09T08:05:16;101976.31;;;16.97;96.80
78892;BME280;68368;51.728;5.248;2023-10-09T08:07:21;101956.73;;;17.08;96.46
78892;BME280;68368;51.728;5.248;2023-10-09T08:09:26;101973.36;;;17.21;96.05
78892;BME280;68368;51.728;5.248;2023-10-09T08:11:31;101965.21;;;17.33;95.64
78892;BME280;68368;51.728;5.248;2023-10-09T08:13:36;101961.18;;;17.46;95.16
78892;BME280;68368;51.728;5.248;2023-10-09T08:15:41;101959.09;;;17.60;94.74
78892;BME280;68368;51.728;5.248;2023-10-09T08:17:47;101949.83;;;17.74;94.17
78892;BME280;68368;51.728;5.248;2023-10-09T08:19:53;101948.15;;;17.85;93.69
78892;BME280;68368;51.728;5.248;2023-10-09T08:21:57;101952.23;;;17.96;93.00
78892;BME280;68368;51.728;5.248;2023-10-09T08:24:02;101944.14;;;18.04;91.75
78892;BME280;68368;51.728;5.248;2023-10-09T08:26:07;101944.42;;;18.14;91.58
78892;BME280;68368;51.728;5.248;2023-10-09T08:28:13;101945.73;;;18.28;91.27
78892;BME280;68368;51.728;5.248;2023-10-09T08:30:18;101950.05;;;18.42;91.06
78892;BME280;68368;51.728;5.248;2023-10-09T08:32:23;101944.83;;;18.57;90.60
78892;BME280;68368;51.728;5.248;2023-10-09T08:34:27;101946.27;;;18.70;89.81
78892;BME280;68368;51.728;5.248;2023-10-09T08:36:32;101950.25;;;18.84;89.18
78892;BME280;68368;51.728;5.248;2023-10-09T08:38:37;101950.51;;;18.94;88.46
78892;BME280;68368;51.728;5.248;2023-10-09T08:40:42;101954.52;;;19.05;87.93
78892;BME280;68368;51.728;5.248;2023-10-09T08:42:53;101961.39;;;19.17;86.79
78892;BME280;68368;51.728;5.248;2023-10-09T08:44:58;101980.73;;;19.27;85.77
78892;BME280;68368;51.728;5.248;2023-10-09T08:47:03;101995.61;;;19.36;84.58
78892;BME280;68368;51.728;5.248;2023-10-09T08:49:09;102005.86;;;19.49;84.49
78892;BME280;68368;51.728;5.248;2023-10-09T08:51:14;102010.84;;;19.65;83.98
78892;BME280;68368;51.728;5.248;2023-10-09T08:53:19;102014.28;;;19.83;83.52
78892;BME280;68368;51.728;5.248;2023-10-09T08:55:24;102008.25;;;19.98;82.04
78892;BME280;68368;51.728;5.248;2023-10-09T08:57:28;102008.86;;;20.13;81.61
78892;BME280;68368;51.728;5.248;2023-10-09T08:59:33;102011.95;;;20.35;81.57
78892;BME280;68368;51.728;5.248;2023-10-09T09:01:45;102015.89;;;20.58;79.69
78892;BME280;68368;51.728;5.248;2023-10-09T09:03:51;102020.92;;;20.75;78.29
78892;BME280;68368;51.728;5.248;2023-10-09T09:06:00;102022.05;;;20.95;77.51
78892;BME280;68368;51.728;5.248;2023-10-09T09:08:22;102023.55;;;21.15;76.84
78892;BME280;68368;51.728;5.248;2023-10-09T09:10:31;102022.10;;;21.30;75.94
78892;BME280;68368;51.728;5.248;2023-10-09T09:12:39;102018.95;;;21.38;74.16
78892;BME280;68368;51.728;5.248;2023-10-09T09:14:44;102017.25;;;21.40;73.87
78892;BME280;68368;51.728;5.248;2023-10-09T09:16:49;102014.64;;;21.42;74.15
78892;BME280;68368;51.728;5.248;2023-10-09T09:18:56;102018.29;;;21.46;74.35
78892;BME280;68368;51.728;5.248;2023-10-09T09:21:02;102020.90;;;21.49;73.17
78892;BME280;68368;51.728;5.248;2023-10-09T09:23:21;102027.88;;;21.45;72.43
78892;BME280;68368;51.728;5.248;2023-10-09T09:25:28;102032.20;;;21.46;73.21
78892;BME280;68368;51.728;5.248;2023-10-09T09:27:50;102034.70;;;21.52;72.94
78892;BME280;68368;51.728;5.248;2023-10-09T09:29:55;102040.80;;;21.58;72.82
78892;BME280;68368;51.728;5.248;2023-10-09T09:32:00;102045.61;;;21.64;72.49
78892;BME280;68368;51.728;5.248;2023-10-09T09:34:06;102047.85;;;21.68;71.97
78892;BME280;68368;51.728;5.248;2023-10-09T09:36:11;102044.11;;;21.76;72.28
78892;BME280;68368;51.728;5.248;2023-10-09T09:38:15;102043.02;;;21.80;70.90
78892;BME280;68368;51.728;5.248;2023-10-09T09:40:21;102044.30;;;21.80;70.94
78892;BME280;68368;51.728;5.248;2023-10-09T09:42:26;102043.84;;;21.83;71.15
78892;BME280;68368;51.728;5.248;2023-10-09T09:44:32;102047.17;;;21.85;70.90
78892;BME280;68368;51.728;5.248;2023-10-09T09:46:42;102044.94;;;21.87;70.47
78892;BME280;68368;51.728;5.248;2023-10-09T09:48:48;102048.93;;;21.87;70.58
78892;BME280;68368;51.728;5.248;2023-10-09T09:50:55;102053.11;;;21.91;70.70
78892;BME280;68368;51.728;5.248;2023-10-09T09:53:00;102054.91;;;21.97;70.99
78892;BME280;68368;51.728;5.248;2023-10-09T09:55:08;102056.45;;;22.03;70.68
78892;BME280;68368;51.728;5.248;2023-10-09T09:57:15;102053.84;;;22.15;71.03
78892;BME280;68368;51.728;5.248;2023-10-09T09:59:26;102052.59;;;22.28;70.79
78892;BME280;68368;51.728;5.248;2023-10-09T10:01:50;102049.83;;;22.39;69.87
78892;BME280;68368;51.728;5.248;2023-10-09T10:04:02;102050.48;;;22.50;69.92
78892;BME280;68368;51.728;5.248;2023-10-09T10:06:10;102043.08;;;22.58;69.39
78892;BME280;68368;51.728;5.248;2023-10-09T10:08:20;102044.55;;;22.62;68.05
78892;BME280;68368;51.728;5.248;2023-10-09T10:10:40;102053.27;;;22.57;67.67
78892;BME280;68368;51.728;5.248;2023-10-09T10:12:55;102062.64;;;22.57;68.25
78892;BME280;68368;51.728;5.248;2023-10-09T10:15:00;102054.02;;;22.65;68.26
78892;BME280;68368;51.728;5.248;2023-10-09T10:17:06;102053.98;;;22.70;66.71
78892;BME280;68368;51.728;5.248;2023-10-09T10:19:12;102059.42;;;22.70;67.04
78892;BME280;68368;51.728;5.248;2023-10-09T10:21:17;102059.30;;;22.72;67.06
78892;BME280;68368;51.728;5.248;2023-10-09T10:23:22;102058.91;;;22.73;66.86
78892;BME280;68368;51.728;5.248;2023-10-09T10:25:36;102057.92;;;22.75;66.48
78892;BME280;68368;51.728;5.248;2023-10-09T10:27:41;102056.44;;;22.80;67.29
78892;BME280;68368;51.728;5.248;2023-10-09T10:29:46;102043.70;;;22.86;66.67
78892;BME280;68368;51.728;5.248;2023-10-09T10:31:59;102043.30;;;22.83;65.98
78892;BME280;68368;51.728;5.248;2023-10-09T10:34:10;102036.50;;;22.77;66.49
78892;BME280;68368;51.728;5.248;2023-10-09T10:36:14;102038.05;;;22.74;66.80
78892;BME280;68368;51.728;5.248;2023-10-09T10:38:34;102033.33;;;22.75;66.93
78892;BME280;68368;51.728;5.248;2023-10-09T10:40:38;102032.73;;;22.75;66.78
78892;BME280;68368;51.728;5.248;2023-10-09T10:42:50;102040.25;;;22.73;66.55
78892;BME280;68368;51.728;5.248;2023-10-09T10:44:54;102042.85;;;22.72;66.38
78892;BME280;68368;51.728;5.248;2023-10-09T10:46:58;102042.05;;;22.70;66.30
78892;BME280;68368;51.728;5.248;2023-10-09T10:49:06;102049.17;;;22.68;66.18
78892;BME280;68368;51.728;5.248;2023-10-09T10:51:11;102054.71;;;22.65;66.55